Vista, California
Current Conditions -  °F | °C
As of 6:53 PM on Saturday 25 Oct 2014 (Local Time) from KCRQ Reporting Station
Clear Clear  
Wind Chill: 68°   Ceiling: Unl
Heat Index: 68°   Visibility: 10mi
Dew Point: 61°   Wind: 6mph
Humidity: 78%   Direction: 250°WSW
Pressure: 29.99"   Gusts: NA
Location:  33.2°N, 117.23°W
Report Text: KCRQ 260153Z AUTO 25005KT 10SM CLR 20/16 A2999 RMK AO2 SLP154 T02000161 TSNO
Loading
Personal Weather Stations






























Interactive Weather Map
Tropical Storm Tracking
New forecast layout! Learn more

10-Day Weather Forecast

Advertisements
Track Severe Weather on mobile